< Typhoon 199313 1993 Season Typhoon 199315 >
Typhoon 199314 (ZOLA)
General InformationTrack Information on Google MapsDetailed Wind InformationList of All Images || NewsDisaster Info.ResourceGoogle EarthGE AnimationAtom FeedGeoJSON
Detalied Best Track (Time Zone = UTC)
Year Month Day Hour Lat. Long. Pressure (hPa) Wind (kt) Class Image Chart
1993 9 5 00 20.0 131.2 1006 0 2 Image Chart
1993 9 5 06 20.2 130.8 1006 0 2 Image Chart
1993 9 5 12 20.3 130.3 1004 0 2 Image Chart
1993 9 5 18 20.5 129.8 1004 0 2 Image Chart
1993 9 6 00 20.7 129.3 1002 0 2 Image Chart
1993 9 6 06 21.0 128.7 1000 0 2 Image Chart
1993 9 6 12 21.6 128.2 998 0 2 Image Chart
1993 9 6 18 22.3 128.1 996 35 3 Image Chart
1993 9 7 00 23.3 128.5 990 45 3 Image Chart
1993 9 7 03 24.1 128.9 990 45 3 Image Chart
1993 9 7 06 24.7 129.2 990 45 3 Image Chart
1993 9 7 09 25.1 129.5 990 45 3 Image Chart
1993 9 7 12 25.5 129.8 990 45 3 Image Chart
1993 9 7 15 26.1 130.2 990 45 3 Image Chart
1993 9 7 18 26.7 130.6 990 45 3 Image Chart
1993 9 7 21 27.4 131.0 990 45 3 Image Chart
1993 9 8 00 28.2 131.5 990 45 3 Image Chart
1993 9 8 03 28.9 131.9 990 45 3 Image Chart
1993 9 8 06 29.6 132.4 985 50 4 Image Chart
1993 9 8 09 30.4 132.9 985 50 4 Image Chart
1993 9 8 12 31.3 133.4 985 50 4 Image Chart
1993 9 8 15 32.0 133.8 985 50 4 Image Chart
1993 9 8 18 32.7 134.3 985 50 4 Image Chart
1993 9 8 21 33.5 135.3 992 40 3 Image Chart
1993 9 9 00 34.5 136.3 994 40 3 Image Chart
1993 9 9 03 35.3 137.0 1000 35 3 Image Chart
1993 9 9 06 36.0 138.0 1004 0 6 Image Chart
1993 9 9 12 38.0 142.5 1006 0 6 Image Chart
1993 9 9 18 38.5 144.0 1006 0 6 Image Chart
1993 9 10 00 39.5 146.0 1004 0 6 Image Chart
1993 9 10 06 40.5 147.5 1002 0 6 Image Chart
1993 9 10 12 41.0 149.5 1002 0 6 Image Chart
1993 9 10 18 42.0 151.0 1002 0 6 Image Chart
1993 9 11 00 43.0 153.0 1000 0 6 Image Chart
1993 9 11 06 43.0 155.0 996 0 6 Image Chart
1993 9 11 12 43.0 157.0 996 0 6 Image Chart
1993 9 11 18 43.0 160.5 992 0 6 Image Chart
1993 9 12 00 43.5 164.0 992 0 6 Image Chart
1993 9 12 06 45.0 168.0 992 0 6 Image Chart
1993 9 12 12 46.0 171.5 992 0 6 Image Chart
1993 9 12 18 48.0 174.0 992 0 6 Image Chart
1993 9 13 00 51.0 176.0 992 0 6 Image Chart
1993 9 13 06 53.0 177.0 988 0 6 Image Chart
1993 9 13 12 55.5 178.0 988 0 6 Image Chart
1993 9 13 18 57.5 179.0 988 0 6 Image Chart
1993 9 14 00 59.5 180.0 988 0 6 Image Chart
1993 9 14 06 61.5 181.0 988 0 6 Image Chart
Japan Meteorological Agency Best Track Data | Correction Date : 1994-01-10
< Typhoon 199313 1993 Season Typhoon 199315 >

Help